sensor_id;sensor_type;location;lat;lon;timestamp;temperature;humidity
59309;DHT22;48433;53.016;-2.260;2023-04-26T00:02:11;5.70;99.90
59309;DHT22;48433;53.016;-2.260;2023-04-26T00:04:39;5.70;99.90
59309;DHT22;48433;53.016;-2.260;2023-04-26T00:07:07;5.80;99.90
59309;DHT22;48433;53.016;-2.260;2023-04-26T00:09:34;5.80;99.90
59309;DHT22;48433;53.016;-2.260;2023-04-26T00:12:02;5.80;99.90
59309;DHT22;48433;53.016;-2.260;2023-04-26T00:14:30;5.80;99.90
59309;DHT22;48433;53.016;-2.260;2023-04-26T00:16:58;5.90;99.90
59309;DHT22;48433;53.016;-2.260;2023-04-26T00:19:26;5.90;99.90
59309;DHT22;48433;53.016;-2.260;2023-04-26T00:21:53;5.90;99.90
59309;DHT22;48433;53.016;-2.260;2023-04-26T00:24:21;5.90;99.90
59309;DHT22;48433;53.016;-2.260;2023-04-26T00:26:51;6.00;99.90
59309;DHT22;48433;53.016;-2.260;2023-04-26T00:29:19;6.00;99.90
59309;DHT22;48433;53.016;-2.260;2023-04-26T00:31:47;6.10;99.90
59309;DHT22;48433;53.016;-2.260;2023-04-26T00:34:15;6.10;99.90
59309;DHT22;48433;53.016;-2.260;2023-04-26T00:36:43;6.00;99.90
59309;DHT22;48433;53.016;-2.260;2023-04-26T00:39:10;6.00;99.90
59309;DHT22;48433;53.016;-2.260;2023-04-26T00:41:38;6.00;99.90
59309;DHT22;48433;53.016;-2.260;2023-04-26T00:44:06;6.00;99.90
59309;DHT22;48433;53.016;-2.260;2023-04-26T00:46:33;5.90;99.90
59309;DHT22;48433;53.016;-2.260;2023-04-26T00:49:01;5.90;99.90
59309;DHT22;48433;53.016;-2.260;2023-04-26T00:51:29;6.00;99.90
59309;DHT22;48433;53.016;-2.260;2023-04-26T00:53:58;6.00;99.90
59309;DHT22;48433;53.016;-2.260;2023-04-26T00:56:26;6.10;99.90
59309;DHT22;48433;53.016;-2.260;2023-04-26T00:58:54;6.20;99.90
59309;DHT22;48433;53.016;-2.260;2023-04-26T01:01:22;6.20;99.90
59309;DHT22;48433;53.016;-2.260;2023-04-26T01:03:50;6.30;99.90
59309;DHT22;48433;53.016;-2.260;2023-04-26T01:06:18;6.40;99.90
59309;DHT22;48433;53.016;-2.260;2023-04-26T01:08:46;6.40;99.90
59309;DHT22;48433;53.016;-2.260;2023-04-26T01:11:13;6.50;99.90
59309;DHT22;48433;53.016;-2.260;2023-04-26T01:13:42;6.50;99.90
59309;DHT22;48433;53.016;-2.260;2023-04-26T01:16:09;6.50;99.90
59309;DHT22;48433;53.016;-2.260;2023-04-26T01:18:40;6.50;99.90
59309;DHT22;48433;53.016;-2.260;2023-04-26T01:21:07;6.40;99.90
59309;DHT22;48433;53.016;-2.260;2023-04-26T01:23:37;6.40;99.90
59309;DHT22;48433;53.016;-2.260;2023-04-26T01:26:05;6.30;99.90
59309;DHT22;48433;53.016;-2.260;2023-04-26T01:28:33;6.30;99.90
59309;DHT22;48433;53.016;-2.260;2023-04-26T01:31:04;6.30;99.90
59309;DHT22;48433;53.016;-2.260;2023-04-26T01:33:32;6.30;99.90
59309;DHT22;48433;53.016;-2.260;2023-04-26T01:36:00;6.30;99.90
59309;DHT22;48433;53.016;-2.260;2023-04-26T01:38:29;6.30;99.90
59309;DHT22;48433;53.016;-2.260;2023-04-26T01:40:56;6.30;99.90
59309;DHT22;48433;53.016;-2.260;2023-04-26T01:43:24;6.30;99.90
59309;DHT22;48433;53.016;-2.260;2023-04-26T01:45:52;6.30;99.90
59309;DHT22;48433;53.016;-2.260;2023-04-26T01:48:29;6.30;99.90
59309;DHT22;48433;53.016;-2.260;2023-04-26T01:51:00;6.30;99.90
59309;DHT22;48433;53.016;-2.260;2023-04-26T01:53:28;6.30;99.90
59309;DHT22;48433;53.016;-2.260;2023-04-26T01:56:00;6.20;99.90
59309;DHT22;48433;53.016;-2.260;2023-04-26T01:58:30;6.30;99.90
59309;DHT22;48433;53.016;-2.260;2023-04-26T02:01:08;6.30;99.90
59309;DHT22;48433;53.016;-2.260;2023-04-26T02:03:36;6.20;99.90
59309;DHT22;48433;53.016;-2.260;2023-04-26T02:06:29;6.20;99.90
59309;DHT22;48433;53.016;-2.260;2023-04-26T02:08:58;6.20;99.90
59309;DHT22;48433;53.016;-2.260;2023-04-26T02:11:26;6.20;99.90
59309;DHT22;48433;53.016;-2.260;2023-04-26T02:13:53;6.20;99.90
59309;DHT22;48433;53.016;-2.260;2023-04-26T02:16:21;6.10;99.90
59309;DHT22;48433;53.016;-2.260;2023-04-26T02:18:49;6.10;99.90
59309;DHT22;48433;53.016;-2.260;2023-04-26T02:21:16;6.10;99.90
59309;DHT22;48433;53.016;-2.260;2023-04-26T02:23:44;6.10;99.90
59309;DHT22;48433;53.016;-2.260;2023-04-26T02:26:13;6.10;99.90
59309;DHT22;48433;53.016;-2.260;2023-04-26T02:28:42;6.10;99.90
59309;DHT22;48433;53.016;-2.260;2023-04-26T02:31:10;6.10;99.90
59309;DHT22;48433;53.016;-2.260;2023-04-26T02:33:38;6.10;99.90
59309;DHT22;48433;53.016;-2.260;2023-04-26T02:36:06;6.00;99.90
59309;DHT22;48433;53.016;-2.260;2023-04-26T02:38:35;5.80;99.90
59309;DHT22;48433;53.016;-2.260;2023-04-26T02:41:04;6.00;99.90
59309;DHT22;48433;53.016;-2.260;2023-04-26T02:43:33;6.10;99.90
59309;DHT22;48433;53.016;-2.260;2023-04-26T02:46:01;6.10;99.90
59309;DHT22;48433;53.016;-2.260;2023-04-26T02:48:30;6.10;99.90
59309;DHT22;48433;53.016;-2.260;2023-04-26T02:50:58;6.10;99.90
59309;DHT22;48433;53.016;-2.260;2023-04-26T02:53:25;6.10;99.90
59309;DHT22;48433;53.016;-2.260;2023-04-26T02:55:54;6.10;99.90
59309;DHT22;48433;53.016;-2.260;2023-04-26T02:58:22;6.10;99.90
59309;DHT22;48433;53.016;-2.260;2023-04-26T03:00:50;6.10;99.90
59309;DHT22;48433;53.016;-2.260;2023-04-26T03:03:18;6.10;99.90
59309;DHT22;48433;53.016;-2.260;2023-04-26T03:05:46;6.10;99.90
59309;DHT22;48433;53.016;-2.260;2023-04-26T03:08:13;6.00;99.90
59309;DHT22;48433;53.016;-2.260;2023-04-26T03:10:42;6.00;99.90
59309;DHT22;48433;53.016;-2.260;2023-04-26T03:13:10;6.00;99.90
59309;DHT22;48433;53.016;-2.260;2023-04-26T03:15:38;6.00;99.90
59309;DHT22;48433;53.016;-2.260;2023-04-26T03:18:06;5.90;99.90
59309;DHT22;48433;53.016;-2.260;2023-04-26T03:20:33;5.90;99.90
59309;DHT22;48433;53.016;-2.260;2023-04-26T03:23:01;5.90;99.90
59309;DHT22;48433;53.016;-2.260;2023-04-26T03:25:29;5.90;99.90
59309;DHT22;48433;53.016;-2.260;2023-04-26T03:27:56;5.90;99.90
59309;DHT22;48433;53.016;-2.260;2023-04-26T03:30:24;5.90;99.90
59309;DHT22;48433;53.016;-2.260;2023-04-26T03:32:52;8.10;99.90
59309;DHT22;48433;53.016;-2.260;2023-04-26T03:35:20;5.80;99.90
59309;DHT22;48433;53.016;-2.260;2023-04-26T03:37:48;5.80;99.90
59309;DHT22;48433;53.016;-2.260;2023-04-26T03:40:18;5.80;99.90
59309;DHT22;48433;53.016;-2.260;2023-04-26T03:42:46;5.80;99.90
59309;DHT22;48433;53.016;-2.260;2023-04-26T03:45:15;5.80;99.90
59309;DHT22;48433;53.016;-2.260;2023-04-26T03:47:42;5.80;99.90
59309;DHT22;48433;53.016;-2.260;2023-04-26T03:50:10;5.70;99.90
59309;DHT22;48433;53.016;-2.260;2023-04-26T03:52:38;5.80;99.90
59309;DHT22;48433;53.016;-2.260;2023-04-26T03:55:06;5.70;99.90
59309;DHT22;48433;53.016;-2.260;2023-04-26T03:57:36;5.70;99.90
59309;DHT22;48433;53.016;-2.260;2023-04-26T04:00:05;5.70;99.90
59309;DHT22;48433;53.016;-2.260;2023-04-26T04:02:42;5.70;99.90
59309;DHT22;48433;53.016;-2.260;2023-04-26T04:05:16;5.70;99.90
59309;DHT22;48433;53.016;-2.260;2023-04-26T04:07:44;5.70;99.90
59309;DHT22;48433;53.016;-2.260;2023-04-26T04:10:13;5.70;99.90
59309;DHT22;48433;53.016;-2.260;2023-04-26T04:12:43;5.70;99.90
59309;DHT22;48433;53.016;-2.260;2023-04-26T04:15:10;5.70;99.90
59309;DHT22;48433;53.016;-2.260;2023-04-26T04:17:45;5.70;99.90
59309;DHT22;48433;53.016;-2.260;2023-04-26T04:20:13;5.70;99.90
59309;DHT22;48433;53.016;-2.260;2023-04-26T04:22:42;5.70;99.90
59309;DHT22;48433;53.016;-2.260;2023-04-26T04:25:09;5.70;99.90
59309;DHT22;48433;53.016;-2.260;2023-04-26T04:27:40;5.70;99.90
59309;DHT22;48433;53.016;-2.260;2023-04-26T04:30:11;5.70;99.90
59309;DHT22;48433;53.016;-2.260;2023-04-26T04:32:40;5.70;99.90
59309;DHT22;48433;53.016;-2.260;2023-04-26T04:35:11;5.70;99.90
59309;DHT22;48433;53.016;-2.260;2023-04-26T04:37:40;5.70;99.90
59309;DHT22;48433;53.016;-2.260;2023-04-26T04:40:10;5.70;99.90
59309;DHT22;48433;53.016;-2.260;2023-04-26T04:42:40;5.70;99.90
59309;DHT22;48433;53.016;-2.260;2023-04-26T04:45:11;5.70;99.90
59309;DHT22;48433;53.016;-2.260;2023-04-26T04:47:39;5.70;99.90
59309;DHT22;48433;53.016;-2.260;2023-04-26T04:50:07;5.70;99.90
59309;DHT22;48433;53.016;-2.260;2023-04-26T04:52:36;5.70;99.90
59309;DHT22;48433;53.016;-2.260;2023-04-26T04:55:04;5.70;99.90
59309;DHT22;48433;53.016;-2.260;2023-04-26T04:57:33;5.80;99.90
59309;DHT22;48433;53.016;-2.260;2023-04-26T05:00:00;5.80;99.90
59309;DHT22;48433;53.016;-2.260;2023-04-26T05:02:41;5.80;99.90
59309;DHT22;48433;53.016;-2.260;2023-04-26T05:05:09;5.80;99.90
59309;DHT22;48433;53.016;-2.260;2023-04-26T05:07:38;5.80;99.90
59309;DHT22;48433;53.016;-2.260;2023-04-26T05:10:06;5.80;99.90
59309;DHT22;48433;53.016;-2.260;2023-04-26T05:12:35;5.80;99.90
59309;DHT22;48433;53.016;-2.260;2023-04-26T05:15:04;5.80;99.90
59309;DHT22;48433;53.016;-2.260;2023-04-26T05:17:32;5.80;99.90
59309;DHT22;48433;53.016;-2.260;2023-04-26T05:20:10;5.90;99.90
59309;DHT22;48433;53.016;-2.260;2023-04-26T05:22:37;5.80;99.90
59309;DHT22;48433;53.016;-2.260;2023-04-26T05:25:07;5.90;99.90
59309;DHT22;48433;53.016;-2.260;2023-04-26T05:27:35;5.80;99.90
59309;DHT22;48433;53.016;-2.260;2023-04-26T05:30:14;5.90;99.90
59309;DHT22;48433;53.016;-2.260;2023-04-26T05:33:05;5.90;99.90
59309;DHT22;48433;53.016;-2.260;2023-04-26T05:35:39;5.90;99.90
59309;DHT22;48433;53.016;-2.260;2023-04-26T05:38:07;6.00;99.90
59309;DHT22;48433;53.016;-2.260;2023-04-26T05:40:35;6.00;99.90
59309;DHT22;48433;53.016;-2.260;2023-04-26T05:43:04;6.00;99.90
59309;DHT22;48433;53.016;-2.260;2023-04-26T05:45:32;6.00;99.90
59309;DHT22;48433;53.016;-2.260;2023-04-26T05:48:00;6.10;99.90
59309;DHT22;48433;53.016;-2.260;2023-04-26T05:50:28;6.20;99.90
59309;DHT22;48433;53.016;-2.260;2023-04-26T05:52:55;6.20;99.90
59309;DHT22;48433;53.016;-2.260;2023-04-26T05:55:23;6.20;99.90
59309;DHT22;48433;53.016;-2.260;2023-04-26T05:57:51;6.30;99.90
59309;DHT22;48433;53.016;-2.260;2023-04-26T06:00:19;6.30;99.90
59309;DHT22;48433;53.016;-2.260;2023-04-26T06:02:49;6.40;99.90
59309;DHT22;48433;53.016;-2.260;2023-04-26T06:05:18;6.40;99.90
59309;DHT22;48433;53.016;-2.260;2023-04-26T06:07:47;6.50;99.90
59309;DHT22;48433;53.016;-2.260;2023-04-26T06:10:14;6.50;99.90
59309;DHT22;48433;53.016;-2.260;2023-04-26T06:12:43;6.50;99.90
59309;DHT22;48433;53.016;-2.260;2023-04-26T06:15:11;6.60;99.90
59309;DHT22;48433;53.016;-2.260;2023-04-26T06:17:40;6.60;99.90
59309;DHT22;48433;53.016;-2.260;2023-04-26T06:20:09;6.70;99.90
59309;DHT22;48433;53.016;-2.260;2023-04-26T06:22:37;6.70;99.90
59309;DHT22;48433;53.016;-2.260;2023-04-26T06:25:06;6.80;99.90
59309;DHT22;48433;53.016;-2.260;2023-04-26T06:27:36;6.90;99.90
59309;DHT22;48433;53.016;-2.260;2023-04-26T06:30:06;7.00;99.90
59309;DHT22;48433;53.016;-2.260;2023-04-26T06:32:40;7.00;99.90
59309;DHT22;48433;53.016;-2.260;2023-04-26T06:35:08;7.20;99.90
59309;DHT22;48433;53.016;-2.260;2023-04-26T06:37:37;7.30;99.90
59309;DHT22;48433;53.016;-2.260;2023-04-26T06:40:08;7.30;99.90
59309;DHT22;48433;53.016;-2.260;2023-04-26T06:42:36;7.40;99.90
59309;DHT22;48433;53.016;-2.260;2023-04-26T06:45:16;7.50;99.90
59309;DHT22;48433;53.016;-2.260;2023-04-26T06:47:44;7.60;99.90
59309;DHT22;48433;53.016;-2.260;2023-04-26T06:50:13;7.60;99.90
59309;DHT22;48433;53.016;-2.260;2023-04-26T06:52:41;7.70;99.90
59309;DHT22;48433;53.016;-2.260;2023-04-26T06:55:09;7.80;99.90
59309;DHT22;48433;53.016;-2.260;2023-04-26T06:57:37;7.90;99.90
59309;DHT22;48433;53.016;-2.260;2023-04-26T07:00:05;7.90;99.90
59309;DHT22;48433;53.016;-2.260;2023-04-26T07:02:34;7.90;99.90
59309;DHT22;48433;53.016;-2.260;2023-04-26T07:05:01;7.90;99.90
59309;DHT22;48433;53.016;-2.260;2023-04-26T07:07:29;8.00;99.90
59309;DHT22;48433;53.016;-2.260;2023-04-26T07:09:57;8.00;99.90
59309;DHT22;48433;53.016;-2.260;2023-04-26T07:12:25;8.10;99.90
59309;DHT22;48433;53.016;-2.260;2023-04-26T07:14:53;8.10;99.90
59309;DHT22;48433;53.016;-2.260;2023-04-26T07:17:20;8.10;99.90
59309;DHT22;48433;53.016;-2.260;2023-04-26T07:19:48;8.10;99.90
59309;DHT22;48433;53.016;-2.260;2023-04-26T07:22:16;8.20;99.90
59309;DHT22;48433;53.016;-2.260;2023-04-26T07:24:43;8.20;99.90
59309;DHT22;48433;53.016;-2.260;2023-04-26T07:27:11;8.30;99.90
59309;DHT22;48433;53.016;-2.260;2023-04-26T07:29:39;8.30;99.90
59309;DHT22;48433;53.016;-2.260;2023-04-26T07:32:07;8.50;99.90
59309;DHT22;48433;53.016;-2.260;2023-04-26T07:34:35;8.60;99.90
59309;DHT22;48433;53.016;-2.260;2023-04-26T07:37:02;8.70;99.90
59309;DHT22;48433;53.016;-2.260;2023-04-26T07:39:30;8.90;99.90
59309;DHT22;48433;53.016;-2.260;2023-04-26T07:41:58;8.90;99.90
59309;DHT22;48433;53.016;-2.260;2023-04-26T07:44:26;9.00;99.90
59309;DHT22;48433;53.016;-2.260;2023-04-26T07:46:53;9.20;99.90
59309;DHT22;48433;53.016;-2.260;2023-04-26T07:49:21;9.20;99.90
59309;DHT22;48433;53.016;-2.260;2023-04-26T07:51:49;9.30;99.90
59309;DHT22;48433;53.016;-2.260;2023-04-26T07:54:18;9.40;99.90
59309;DHT22;48433;53.016;-2.260;2023-04-26T07:56:45;9.70;99.90
59309;DHT22;48433;53.016;-2.260;2023-04-26T07:59:13;10.20;99.90
59309;DHT22;48433;53.016;-2.260;2023-04-26T08:01:41;10.00;99.90
59309;DHT22;48433;53.016;-2.260;2023-04-26T08:04:08;10.10;99.90
59309;DHT22;48433;53.016;-2.260;2023-04-26T08:06:37;10.40;99.90
59309;DHT22;48433;53.016;-2.260;2023-04-26T08:09:05;10.40;99.90
59309;DHT22;48433;53.016;-2.260;2023-04-26T08:11:33;10.60;99.90
59309;DHT22;48433;53.016;-2.260;2023-04-26T08:14:00;10.70;99.90
59309;DHT22;48433;53.016;-2.260;2023-04-26T08:16:28;10.80;99.90
59309;DHT22;48433;53.016;-2.260;2023-04-26T08:18:56;10.80;99.90
59309;DHT22;48433;53.016;-2.260;2023-04-26T08:21:29;10.90;99.90
59309;DHT22;48433;53.016;-2.260;2023-04-26T08:23:57;10.90;99.90
59309;DHT22;48433;53.016;-2.260;2023-04-26T08:26:24;11.00;99.90
59309;DHT22;48433;53.016;-2.260;2023-04-26T08:28:53;11.00;99.90
59309;DHT22;48433;53.016;-2.260;2023-04-26T08:31:20;11.00;99.90
59309;DHT22;48433;53.016;-2.260;2023-04-26T08:33:50;11.00;99.90
59309;DHT22;48433;53.016;-2.260;2023-04-26T08:36:18;11.20;99.90
59309;DHT22;48433;53.016;-2.260;2023-04-26T08:38:46;11.20;99.90
59309;DHT22;48433;53.016;-2.260;2023-04-26T08:41:15;11.30;99.90
59309;DHT22;48433;53.016;-2.260;2023-04-26T08:43:48;11.40;99.90
59309;DHT22;48433;53.016;-2.260;2023-04-26T08:46:18;11.70;99.50
59309;DHT22;48433;53.016;-2.260;2023-04-26T08:48:55;11.70;99.80
59309;DHT22;48433;53.016;-2.260;2023-04-26T08:51:27;11.80;99.50
59309;DHT22;48433;53.016;-2.260;2023-04-26T08:53:57;11.90;98.50
59309;DHT22;48433;53.016;-2.260;2023-04-26T08:56:26;12.00;96.00
59309;DHT22;48433;53.016;-2.260;2023-04-26T08:58:54;11.90;96.20
59309;DHT22;48433;53.016;-2.260;2023-04-26T09:01:24;12.00;96.10
59309;DHT22;48433;53.016;-2.260;2023-04-26T09:03:54;12.00;95.90
59309;DHT22;48433;53.016;-2.260;2023-04-26T09:06:24;12.20;95.50
59309;DHT22;48433;53.016;-2.260;2023-04-26T09:08:55;12.20;95.80
59309;DHT22;48433;53.016;-2.260;2023-04-26T09:11:23;12.30;95.60
59309;DHT22;48433;53.016;-2.260;2023-04-26T09:13:51;12.40;94.90
59309;DHT22;48433;53.016;-2.260;2023-04-26T09:16:19;12.80;93.80
59309;DHT22;48433;53.016;-2.260;2023-04-26T09:19:00;12.70;94.00
59309;DHT22;48433;53.016;-2.260;2023-04-26T09:21:28;13.00;93.30
59309;DHT22;48433;53.016;-2.260;2023-04-26T09:23:57;13.20;92.10
59309;DHT22;48433;53.016;-2.260;2023-04-26T09:26:25;13.30;90.70
59309;DHT22;48433;53.016;-2.260;2023-04-26T09:31:48;13.30;90.30
59309;DHT22;48433;53.016;-2.260;2023-04-26T09:34:17;13.30;90.30
59309;DHT22;48433;53.016;-2.260;2023-04-26T09:36:54;13.30;90.40
59309;DHT22;48433;53.016;-2.260;2023-04-26T09:39:37;13.40;90.80
59309;DHT22;48433;53.016;-2.260;2023-04-26T09:42:07;13.60;90.50
59309;DHT22;48433;53.016;-2.260;2023-04-26T09:44:36;13.80;89.10
59309;DHT22;48433;53.016;-2.260;2023-04-26T09:47:09;14.00;86.00
59309;DHT22;48433;53.016;-2.260;2023-04-26T09:49:47;14.00;87.50
59309;DHT22;48433;53.016;-2.260;2023-04-26T09:52:17;14.10;86.90
59309;DHT22;48433;53.016;-2.260;2023-04-26T09:54:46;14.20;85.70
59309;DHT22;48433;53.016;-2.260;2023-04-26T09:57:16;14.30;81.40
59309;DHT22;48433;53.016;-2.260;2023-04-26T09:59:46;14.30;82.20
59309;DHT22;48433;53.016;-2.260;2023-04-26T10:02:21;14.30;81.30
59309;DHT22;48433;53.016;-2.260;2023-04-26T10:04:51;14.30;80.40
59309;DHT22;48433;53.016;-2.260;2023-04-26T10:07:21;14.30;76.00
59309;DHT22;48433;53.016;-2.260;2023-04-26T10:09:49;14.30;76.70
59309;DHT22;48433;53.016;-2.260;2023-04-26T10:12:18;14.30;76.10
59309;DHT22;48433;53.016;-2.260;2023-04-26T10:14:46;14.40;76.40
59309;DHT22;48433;53.016;-2.260;2023-04-26T10:17:14;14.70;71.60
59309;DHT22;48433;53.016;-2.260;2023-04-26T10:19:43;14.80;72.40
59309;DHT22;48433;53.016;-2.260;2023-04-26T10:22:26;14.80;71.20
59309;DHT22;48433;53.016;-2.260;2023-04-26T10:24:55;14.90;71.60
59309;DHT22;48433;53.016;-2.260;2023-04-26T10:30:14;15.50;67.80
59309;DHT22;48433;53.016;-2.260;2023-04-26T10:35:33;15.70;65.90
59309;DHT22;48433;53.016;-2.260;2023-04-26T10:40:33;15.80;64.70
59309;DHT22;48433;53.016;-2.260;2023-04-26T10:45:43;16.10;61.90
59309;DHT22;48433;53.016;-2.260;2023-04-26T10:48:21;16.20;60.00
59309;DHT22;48433;53.016;-2.260;2023-04-26T10:53:30;16.60;59.70
59309;DHT22;48433;53.016;-2.260;2023-04-26T10:55:59;16.70;58.70
59309;DHT22;48433;53.016;-2.260;2023-04-26T10:58:34;17.00;56.40
59309;DHT22;48433;53.016;-2.260;2023-04-26T11:01:10;17.00;56.40
59309;DHT22;48433;53.016;-2.260;2023-04-26T11:06:26;17.20;53.10
59309;DHT22;48433;53.016;-2.260;2023-04-26T11:08:53;17.20;53.60
59309;DHT22;48433;53.016;-2.260;2023-04-26T11:11:24;17.60;53.80
59309;DHT22;48433;53.016;-2.260;2023-04-26T11:13:52;17.90;53.20
59309;DHT22;48433;53.016;-2.260;2023-04-26T11:16:20;17.80;51.50
59309;DHT22;48433;53.016;-2.260;2023-04-26T11:18:48;17.40;49.90
59309;DHT22;48433;53.016;-2.260;2023-04-26T11:21:21;17.10;50.40
59309;DHT22;48433;53.016;-2.260;2023-04-26T11:23:54;16.80;50.50
59309;DHT22;48433;53.016;-2.260;2023-04-26T11:26:22;16.80;50.20
59309;DHT22;48433;53.016;-2.260;2023-04-26T11:28:57;17.00;50.80
59309;DHT22;48433;53.016;-2.260;2023-04-26T11:31:25;17.60;51.20
59309;DHT22;48433;53.016;-2.260;2023-04-26T11:33:53;17.70;50.10
59309;DHT22;48433;53.016;-2.260;2023-04-26T11:36:21;17.50;49.90
59309;DHT22;48433;53.016;-2.260;2023-04-26T11:39:04;17.40;49.30
59309;DHT22;48433;53.016;-2.260;2023-04-26T11:41:32;17.90;49.80
59309;DHT22;48433;53.016;-2.260;2023-04-26T11:43:59;18.20;49.80
59309;DHT22;48433;53.016;-2.260;2023-04-26T11:46:27;18.90;47.60
59309;DHT22;48433;53.016;-2.260;2023-04-26T11:48:55;18.80;48.10
59309;DHT22;48433;53.016;-2.260;2023-04-26T11:51:23;19.30;46.40
59309;DHT22;48433;53.016;-2.260;2023-04-26T11:53:52;19.70;46.10
59309;DHT22;48433;53.016;-2.260;2023-04-26T11:56:20;19.90;44.80
59309;DHT22;48433;53.016;-2.260;2023-04-26T11:58:52;20.20;44.20
59309;DHT22;48433;53.016;-2.260;2023-04-26T12:01:22;20.20;43.70
59309;DHT22;48433;53.016;-2.260;2023-04-26T12:03:54;19.70;43.90
59309;DHT22;48433;53.016;-2.260;2023-04-26T12:06:43;18.00;44.80
59309;DHT22;48433;53.016;-2.260;2023-04-26T12:09:11;18.00;45.30
59309;DHT22;48433;53.016;-2.260;2023-04-26T12:11:39;17.20;46.60
59309;DHT22;48433;53.016;-2.260;2023-04-26T12:14:07;16.60;47.60
59309;DHT22;48433;53.016;-2.260;2023-04-26T12:16:36;15.70;49.10
59309;DHT22;48433;53.016;-2.260;2023-04-26T12:19:05;15.70;49.70
59309;DHT22;48433;53.016;-2.260;2023-04-26T12:21:42;15.50;51.10
59309;DHT22;48433;53.016;-2.260;2023-04-26T12:24:26;15.20;51.20
59309;DHT22;48433;53.016;-2.260;2023-04-26T12:26:56;15.00;51.70
59309;DHT22;48433;53.016;-2.260;2023-04-26T12:29:26;15.00;52.00
59309;DHT22;48433;53.016;-2.260;2023-04-26T12:31:57;14.80;52.10
59309;DHT22;48433;53.016;-2.260;2023-04-26T12:34:26;14.80;52.10
59309;DHT22;48433;53.016;-2.260;2023-04-26T12:36:54;14.70;52.40
59309;DHT22;48433;53.016;-2.260;2023-04-26T12:39:22;14.80;53.00
59309;DHT22;48433;53.016;-2.260;2023-04-26T12:41:49;14.80;53.50
59309;DHT22;48433;53.016;-2.260;2023-04-26T12:44:17;15.00;53.90
59309;DHT22;48433;53.016;-2.260;2023-04-26T12:46:48;15.30;52.70
59309;DHT22;48433;53.016;-2.260;2023-04-26T12:49:16;15.30;53.20
59309;DHT22;48433;53.016;-2.260;2023-04-26T12:51:44;15.30;52.60
59309;DHT22;48433;53.016;-2.260;2023-04-26T12:54:12;15.40;52.40
59309;DHT22;48433;53.016;-2.260;2023-04-26T12:56:40;15.70;51.60
59309;DHT22;48433;53.016;-2.260;2023-04-26T12:59:10;15.70;52.00
59309;DHT22;48433;53.016;-2.260;2023-04-26T13:01:38;15.80;51.50
59309;DHT22;48433;53.016;-2.260;2023-04-26T13:04:06;15.80;50.90
59309;DHT22;48433;53.016;-2.260;2023-04-26T13:06:34;15.70;50.20
59309;DHT22;48433;53.016;-2.260;2023-04-26T13:09:02;15.70;50.70
59309;DHT22;48433;53.016;-2.260;2023-04-26T13:11:30;15.50;50.40
59309;DHT22;48433;53.016;-2.260;2023-04-26T13:13:57;15.30;50.50
59309;DHT22;48433;53.016;-2.260;2023-04-26T13:16:25;15.10;51.00
59309;DHT22;48433;53.016;-2.260;2023-04-26T13:18:53;14.90;50.60
59309;DHT22;48433;53.016;-2.260;2023-04-26T13:21:22;14.80;50.80
59309;DHT22;48433;53.016;-2.260;2023-04-26T13:23:50;14.50;51.40
59309;DHT22;48433;53.016;-2.260;2023-04-26T13:26:17;14.40;51.80
59309;DHT22;48433;53.016;-2.260;2023-04-26T13:28:45;14.30;51.60
59309;DHT22;48433;53.016;-2.260;2023-04-26T13:31:14;14.30;52.20
59309;DHT22;48433;53.016;-2.260;2023-04-26T13:33:44;14.30;52.40
59309;DHT22;48433;53.016;-2.260;2023-04-26T13:36:14;14.20;52.40
59309;DHT22;48433;53.016;-2.260;2023-04-26T13:38:43;14.10;52.30
59309;DHT22;48433;53.016;-2.260;2023-04-26T13:41:10;13.90;53.20
59309;DHT22;48433;53.016;-2.260;2023-04-26T13:43:38;13.80;53.30
59309;DHT22;48433;53.016;-2.260;2023-04-26T13:46:05;13.80;53.30
59309;DHT22;48433;53.016;-2.260;2023-04-26T13:48:34;13.80;53.20
59309;DHT22;48433;53.016;-2.260;2023-04-26T13:51:01;13.90;53.40
59309;DHT22;48433;53.016;-2.260;2023-04-26T13:53:32;13.90;53.10
59309;DHT22;48433;53.016;-2.260;2023-04-26T13:56:00;14.00;53.00
59309;DHT22;48433;53.016;-2.260;2023-04-26T13:58:28;14.20;52.50
59309;DHT22;48433;53.016;-2.260;2023-04-26T14:00:55;14.20;52.80
59309;DHT22;48433;53.016;-2.260;2023-04-26T14:03:23;14.30;52.50
59309;DHT22;48433;53.016;-2.260;2023-04-26T14:05:51;14.50;52.40
59309;DHT22;48433;53.016;-2.260;2023-04-26T14:08:19;14.70;51.40
59309;DHT22;48433;53.016;-2.260;2023-04-26T14:10:47;14.70;51.80
59309;DHT22;48433;53.016;-2.260;2023-04-26T14:13:15;14.80;51.00
59309;DHT22;48433;53.016;-2.260;2023-04-26T14:15:42;15.00;51.00
59309;DHT22;48433;53.016;-2.260;2023-04-26T14:18:10;15.20;49.70
59309;DHT22;48433;53.016;-2.260;2023-04-26T14:20:37;15.30;50.30
59309;DHT22;48433;53.016;-2.260;2023-04-26T14:23:05;15.70;50.10
59309;DHT22;48433;53.016;-2.260;2023-04-26T14:25:33;16.00;49.70
59309;DHT22;48433;53.016;-2.260;2023-04-26T14:28:00;16.50;48.00
59309;DHT22;48433;53.016;-2.260;2023-04-26T14:30:28;16.70;48.60
59309;DHT22;48433;53.016;-2.260;2023-04-26T14:32:56;17.10;48.00
59309;DHT22;48433;53.016;-2.260;2023-04-26T14:35:24;17.80;47.70
59309;DHT22;48433;53.016;-2.260;2023-04-26T14:37:51;19.10;45.80
59309;DHT22;48433;53.016;-2.260;2023-04-26T14:40:19;19.50;46.80
59309;DHT22;48433;53.016;-2.260;2023-04-26T14:42:47;20.80;45.10
59309;DHT22;48433;53.016;-2.260;2023-04-26T14:45:16;21.90;43.10
59309;DHT22;48433;53.016;-2.260;2023-04-26T14:47:44;23.20;39.40
59309;DHT22;48433;53.016;-2.260;2023-04-26T14:50:11;23.60;39.90
59309;DHT22;48433;53.016;-2.260;2023-04-26T14:52:40;24.20;38.20
59309;DHT22;48433;53.016;-2.260;2023-04-26T14:55:08;24.60;37.00
59309;DHT22;48433;53.016;-2.260;2023-04-26T14:57:35;24.40;34.60
59309;DHT22;48433;53.016;-2.260;2023-04-26T15:00:04;24.10;35.50
59309;DHT22;48433;53.016;-2.260;2023-04-26T15:02:35;23.30;34.70
59309;DHT22;48433;53.016;-2.260;2023-04-26T15:05:03;22.30;35.50
59309;DHT22;48433;53.016;-2.260;2023-04-26T15:07:31;21.00;36.20
59309;DHT22;48433;53.016;-2.260;2023-04-26T15:09:59;20.80;37.10
59309;DHT22;48433;53.016;-2.260;2023-04-26T15:12:27;20.20;37.80
59309;DHT22;48433;53.016;-2.260;2023-04-26T15:14:55;19.50;38.20
59309;DHT22;48433;53.016;-2.260;2023-04-26T15:17:23;18.50;38.70
59309;DHT22;48433;53.016;-2.260;2023-04-26T15:19:50;18.40;39.40
59309;DHT22;48433;53.016;-2.260;2023-04-26T15:22:18;18.00;40.20
59309;DHT22;48433;53.016;-2.260;2023-04-26T15:24:46;17.80;41.20
59309;DHT22;48433;53.016;-2.260;2023-04-26T15:27:15;17.50;40.90
59309;DHT22;48433;53.016;-2.260;2023-04-26T15:29:43;17.40;41.40
59309;DHT22;48433;53.016;-2.260;2023-04-26T15:32:11;17.10;41.60
59309;DHT22;48433;53.016;-2.260;2023-04-26T15:34:40;16.80;41.80
59309;DHT22;48433;53.016;-2.260;2023-04-26T15:37:11;16.60;42.30
59309;DHT22;48433;53.016;-2.260;2023-04-26T15:39:39;16.60;42.80
59309;DHT22;48433;53.016;-2.260;2023-04-26T15:42:07;16.50;43.00
59309;DHT22;48433;53.016;-2.260;2023-04-26T15:44:34;16.30;43.30
59309;DHT22;48433;53.016;-2.260;2023-04-26T15:47:02;15.90;44.00
59309;DHT22;48433;53.016;-2.260;2023-04-26T15:49:30;15.90;44.40
59309;DHT22;48433;53.016;-2.260;2023-04-26T15:51:58;15.80;44.80
59309;DHT22;48433;53.016;-2.260;2023-04-26T15:54:25;15.60;45.20